Scottsbluff, NE

3:34 PM MST on December 25, 2014 (GMT -0700)
Scottsbluff Main Street Market | Change Station
CLOSE
Current Station
Personal Weather Station
Location: Scottsbluff, NE
Elevation: 3881 ft
Nearby Weather Stations
Active Advisory: Winter Storm Warning Active Notice: Local Storm Report

Elev 3881 ft 41.86 °N, 103.67 °W | Updated 8 minutes ago

Light Snow
Light Snow Mist
28.3 °F
Feels Like 28 °F
N
3.0
Wind Variable Wind from West
Gusts 7.0 mph

Today
High -- | Low -- °F
--% Chance of Precip.
Yesterday
High -- | Low -- °F
Precip. -- in
7:20 AM 4:29 PM
Waxing Crescent, 19% visible
Pressure 29.66 in
Visibility 1.0 miles
Clouds Few 900 ft
Overcast 2200 ft
Windchill 28 °F
Dew Point 26 °F
Humidity 91%
Rainfall 0.00 in
Snow Depth Not available.
UV 0 out of 12
Pollen .10 out of 12
Air Quality Not available.
Flu Activity Not available.
SPECI KBFF 252223Z AUTO 02018G29KT 1SM -SN BR FEW009 OVC022 M02/M04 A2966 RMK AO2 PK WND 02029/2219 P0000 T10221044

More Conditions Fewer Conditions

Pressure 29.66 in
Visibility 1.0 miles
Clouds Few 900 ft
Overcast 2200 ft
Windchill 28 °F
Dew Point 26 °F
Humidity 91%
Rainfall 0.00 in
Snow Depth Not available.
UV 0 out of 12
Pollen .10 out of 12
Air Quality Not available.
Flu Activity Not available.
SPECI KBFF 252223Z AUTO 02018G29KT 1SM -SN BR FEW009 OVC022 M02/M04 A2966 RMK AO2 PK WND 02029/2219 P0000 T10221044

More Conditions Fewer Conditions

10-Day Weather Forecast

Almanac

Astronomy

Dec. 25, 2014 Rise Set
Actual Time
Civil Twilight
Nautical Twilight
Astronomical Twilight
Moon
Length of Visible Light
Length of Day
Tomorrow will be .
, % of the Moon is Illuminated

Today's Extremes

State Highs State Lows

Community

WunderPhotos

Upload Photos

1,780,430 photos uploaded!

WunderBlogs® & News

Nearby

Air Quality

  Air Quality AQ Index Pollutant
Not available.

Snow Depth

Station Depth Elevation

Earthquake Activity

City Distance Mag. Time & Date
Minimum magnitude displayed is 2.5.

Coastal Water Temperatures

Place Temperature

Nearby Weather Stations